sensor_id;sensor_type;location;lat;lon;timestamp;temperature;humidity
57664;DHT22;43493;53.098;6.064;2023-04-06T00:01:37;4.70;94.30
57664;DHT22;43493;53.098;6.064;2023-04-06T00:04:03;4.70;94.40
57664;DHT22;43493;53.098;6.064;2023-04-06T00:06:28;4.60;94.80
57664;DHT22;43493;53.098;6.064;2023-04-06T00:08:55;4.70;95.00
57664;DHT22;43493;53.098;6.064;2023-04-06T00:11:21;4.60;95.00
57664;DHT22;43493;53.098;6.064;2023-04-06T00:13:47;4.60;94.80
57664;DHT22;43493;53.098;6.064;2023-04-06T00:16:13;4.60;95.10
57664;DHT22;43493;53.098;6.064;2023-04-06T00:18:39;4.50;95.10
57664;DHT22;43493;53.098;6.064;2023-04-06T00:21:04;4.50;95.30
57664;DHT22;43493;53.098;6.064;2023-04-06T00:23:30;4.50;95.50
57664;DHT22;43493;53.098;6.064;2023-04-06T00:25:56;4.50;96.10
57664;DHT22;43493;53.098;6.064;2023-04-06T00:28:22;4.50;95.80
57664;DHT22;43493;53.098;6.064;2023-04-06T00:30:51;4.50;95.70
57664;DHT22;43493;53.098;6.064;2023-04-06T00:33:24;4.40;95.90
57664;DHT22;43493;53.098;6.064;2023-04-06T00:35:50;4.40;95.80
57664;DHT22;43493;53.098;6.064;2023-04-06T00:38:16;4.40;96.00
57664;DHT22;43493;53.098;6.064;2023-04-06T00:40:43;4.30;96.20
57664;DHT22;43493;53.098;6.064;2023-04-06T00:43:12;4.30;96.40
57664;DHT22;43493;53.098;6.064;2023-04-06T00:45:39;4.30;96.40
57664;DHT22;43493;53.098;6.064;2023-04-06T00:48:05;4.30;96.80
57664;DHT22;43493;53.098;6.064;2023-04-06T00:50:31;4.20;96.80
57664;DHT22;43493;53.098;6.064;2023-04-06T00:52:58;4.20;97.20
57664;DHT22;43493;53.098;6.064;2023-04-06T00:55:29;4.20;97.50
57664;DHT22;43493;53.098;6.064;2023-04-06T00:57:57;4.20;97.20
57664;DHT22;43493;53.098;6.064;2023-04-06T01:00:24;4.20;97.30
57664;DHT22;43493;53.098;6.064;2023-04-06T01:02:50;4.10;97.60
57664;DHT22;43493;53.098;6.064;2023-04-06T01:05:16;4.10;97.60
57664;DHT22;43493;53.098;6.064;2023-04-06T01:07:41;4.10;97.60
57664;DHT22;43493;53.098;6.064;2023-04-06T01:10:07;4.00;97.90
57664;DHT22;43493;53.098;6.064;2023-04-06T01:12:33;4.00;98.40
57664;DHT22;43493;53.098;6.064;2023-04-06T01:14:59;4.00;98.60
57664;DHT22;43493;53.098;6.064;2023-04-06T01:17:25;4.00;98.70
57664;DHT22;43493;53.098;6.064;2023-04-06T01:19:51;4.00;98.70
57664;DHT22;43493;53.098;6.064;2023-04-06T01:22:19;4.00;98.60
57664;DHT22;43493;53.098;6.064;2023-04-06T01:24:45;3.90;98.70
57664;DHT22;43493;53.098;6.064;2023-04-06T01:27:12;3.90;99.20
57664;DHT22;43493;53.098;6.064;2023-04-06T01:29:38;3.90;99.10
57664;DHT22;43493;53.098;6.064;2023-04-06T01:32:07;3.80;99.00
57664;DHT22;43493;53.098;6.064;2023-04-06T01:34:33;3.70;99.40
57664;DHT22;43493;53.098;6.064;2023-04-06T01:36:59;3.70;99.40
57664;DHT22;43493;53.098;6.064;2023-04-06T01:39:25;3.70;99.80
57664;DHT22;43493;53.098;6.064;2023-04-06T01:41:50;3.70;99.90
57664;DHT22;43493;53.098;6.064;2023-04-06T01:44:17;3.70;99.90
57664;DHT22;43493;53.098;6.064;2023-04-06T01:46:44;3.60;99.90
57664;DHT22;43493;53.098;6.064;2023-04-06T01:49:11;3.60;99.90
57664;DHT22;43493;53.098;6.064;2023-04-06T01:51:37;3.60;99.90
57664;DHT22;43493;53.098;6.064;2023-04-06T01:54:03;3.60;99.90
57664;DHT22;43493;53.098;6.064;2023-04-06T01:56:29;3.60;99.90
57664;DHT22;43493;53.098;6.064;2023-04-06T01:58:54;3.50;99.90
57664;DHT22;43493;53.098;6.064;2023-04-06T02:01:21;3.60;99.90
57664;DHT22;43493;53.098;6.064;2023-04-06T02:03:47;3.50;99.90
57664;DHT22;43493;53.098;6.064;2023-04-06T02:06:12;3.50;99.90
57664;DHT22;43493;53.098;6.064;2023-04-06T02:08:38;3.50;99.90
57664;DHT22;43493;53.098;6.064;2023-04-06T02:11:04;3.50;99.90
57664;DHT22;43493;53.098;6.064;2023-04-06T02:13:30;3.40;99.90
57664;DHT22;43493;53.098;6.064;2023-04-06T02:15:55;3.40;99.90
57664;DHT22;43493;53.098;6.064;2023-04-06T02:18:22;3.40;99.90
57664;DHT22;43493;53.098;6.064;2023-04-06T02:20:48;3.30;99.90
57664;DHT22;43493;53.098;6.064;2023-04-06T02:23:14;3.40;99.90
57664;DHT22;43493;53.098;6.064;2023-04-06T02:25:40;3.40;99.90
57664;DHT22;43493;53.098;6.064;2023-04-06T02:28:06;3.40;99.90
57664;DHT22;43493;53.098;6.064;2023-04-06T02:30:32;3.40;99.90
57664;DHT22;43493;53.098;6.064;2023-04-06T02:33:00;3.30;99.90
57664;DHT22;43493;53.098;6.064;2023-04-06T02:35:27;3.30;99.90
57664;DHT22;43493;53.098;6.064;2023-04-06T02:37:53;3.30;99.90
57664;DHT22;43493;53.098;6.064;2023-04-06T02:40:19;3.20;99.90
57664;DHT22;43493;53.098;6.064;2023-04-06T02:42:45;3.20;99.90
57664;DHT22;43493;53.098;6.064;2023-04-06T02:45:10;3.20;99.90
57664;DHT22;43493;53.098;6.064;2023-04-06T02:47:36;3.20;99.90
57664;DHT22;43493;53.098;6.064;2023-04-06T02:50:02;3.10;99.90
57664;DHT22;43493;53.098;6.064;2023-04-06T02:52:29;3.10;99.90
57664;DHT22;43493;53.098;6.064;2023-04-06T02:54:54;3.10;99.90
57664;DHT22;43493;53.098;6.064;2023-04-06T02:57:20;3.10;99.90
57664;DHT22;43493;53.098;6.064;2023-04-06T02:59:46;3.00;99.90
57664;DHT22;43493;53.098;6.064;2023-04-06T03:02:12;3.00;99.90
57664;DHT22;43493;53.098;6.064;2023-04-06T03:04:37;3.00;99.90
57664;DHT22;43493;53.098;6.064;2023-04-06T03:07:03;3.00;99.90
57664;DHT22;43493;53.098;6.064;2023-04-06T03:09:29;2.90;99.90
57664;DHT22;43493;53.098;6.064;2023-04-06T03:11:54;3.00;99.90
57664;DHT22;43493;53.098;6.064;2023-04-06T03:14:20;3.00;99.90
57664;DHT22;43493;53.098;6.064;2023-04-06T03:16:48;3.00;99.90
57664;DHT22;43493;53.098;6.064;2023-04-06T03:19:14;2.90;99.90
57664;DHT22;43493;53.098;6.064;2023-04-06T03:21:39;2.90;99.90
57664;DHT22;43493;53.098;6.064;2023-04-06T03:24:06;2.90;99.90
57664;DHT22;43493;53.098;6.064;2023-04-06T03:26:31;2.90;99.90
57664;DHT22;43493;53.098;6.064;2023-04-06T03:28:57;2.90;99.90
57664;DHT22;43493;53.098;6.064;2023-04-06T03:31:23;2.90;99.90
57664;DHT22;43493;53.098;6.064;2023-04-06T03:33:48;2.80;99.90
57664;DHT22;43493;53.098;6.064;2023-04-06T03:36:14;2.90;99.90
57664;DHT22;43493;53.098;6.064;2023-04-06T03:38:40;2.80;99.90
57664;DHT22;43493;53.098;6.064;2023-04-06T03:41:06;2.80;99.90
57664;DHT22;43493;53.098;6.064;2023-04-06T03:43:31;2.80;99.90
57664;DHT22;43493;53.098;6.064;2023-04-06T03:45:57;2.80;99.90
57664;DHT22;43493;53.098;6.064;2023-04-06T03:48:23;2.80;99.90
57664;DHT22;43493;53.098;6.064;2023-04-06T03:50:48;2.80;99.90
57664;DHT22;43493;53.098;6.064;2023-04-06T03:53:14;2.80;99.90
57664;DHT22;43493;53.098;6.064;2023-04-06T03:55:40;2.80;99.90
57664;DHT22;43493;53.098;6.064;2023-04-06T03:58:06;2.80;99.90
57664;DHT22;43493;53.098;6.064;2023-04-06T04:00:32;2.80;99.90
57664;DHT22;43493;53.098;6.064;2023-04-06T04:02:58;2.80;99.90
57664;DHT22;43493;53.098;6.064;2023-04-06T04:05:24;2.80;99.90
57664;DHT22;43493;53.098;6.064;2023-04-06T04:07:51;2.80;99.90
57664;DHT22;43493;53.098;6.064;2023-04-06T04:10:17;2.80;99.90
57664;DHT22;43493;53.098;6.064;2023-04-06T04:12:43;2.80;99.90
57664;DHT22;43493;53.098;6.064;2023-04-06T04:15:09;2.80;99.90
57664;DHT22;43493;53.098;6.064;2023-04-06T04:17:35;2.80;99.90
57664;DHT22;43493;53.098;6.064;2023-04-06T04:20:01;2.70;99.90
57664;DHT22;43493;53.098;6.064;2023-04-06T04:22:26;2.70;99.90
57664;DHT22;43493;53.098;6.064;2023-04-06T04:24:53;2.70;99.90
57664;DHT22;43493;53.098;6.064;2023-04-06T04:27:19;2.70;99.90
57664;DHT22;43493;53.098;6.064;2023-04-06T04:29:46;2.70;99.90
57664;DHT22;43493;53.098;6.064;2023-04-06T04:32:11;2.70;99.90
57664;DHT22;43493;53.098;6.064;2023-04-06T04:34:37;2.70;99.90
57664;DHT22;43493;53.098;6.064;2023-04-06T04:37:06;2.70;99.90
57664;DHT22;43493;53.098;6.064;2023-04-06T04:39:32;2.60;99.90
57664;DHT22;43493;53.098;6.064;2023-04-06T04:41:58;2.60;99.90
57664;DHT22;43493;53.098;6.064;2023-04-06T04:44:24;2.60;99.90
57664;DHT22;43493;53.098;6.064;2023-04-06T04:46:49;2.60;99.90
57664;DHT22;43493;53.098;6.064;2023-04-06T04:49:15;2.60;99.90
57664;DHT22;43493;53.098;6.064;2023-04-06T04:51:41;2.60;99.90
57664;DHT22;43493;53.098;6.064;2023-04-06T04:54:07;2.60;99.90
57664;DHT22;43493;53.098;6.064;2023-04-06T04:56:33;2.60;99.90
57664;DHT22;43493;53.098;6.064;2023-04-06T04:58:58;2.60;99.90
57664;DHT22;43493;53.098;6.064;2023-04-06T05:01:24;2.60;99.90
57664;DHT22;43493;53.098;6.064;2023-04-06T05:03:50;2.60;99.90
57664;DHT22;43493;53.098;6.064;2023-04-06T05:06:16;2.60;99.90
57664;DHT22;43493;53.098;6.064;2023-04-06T05:08:42;2.60;99.90
57664;DHT22;43493;53.098;6.064;2023-04-06T05:11:09;2.70;99.90
57664;DHT22;43493;53.098;6.064;2023-04-06T05:13:34;2.70;99.90
57664;DHT22;43493;53.098;6.064;2023-04-06T05:16:00;2.70;99.90
57664;DHT22;43493;53.098;6.064;2023-04-06T05:18:26;2.70;99.90
57664;DHT22;43493;53.098;6.064;2023-04-06T05:20:52;2.70;99.90
57664;DHT22;43493;53.098;6.064;2023-04-06T05:23:18;2.70;99.90
57664;DHT22;43493;53.098;6.064;2023-04-06T05:25:44;2.70;99.90
57664;DHT22;43493;53.098;6.064;2023-04-06T05:28:09;2.70;99.90
57664;DHT22;43493;53.098;6.064;2023-04-06T05:30:35;2.70;99.90
57664;DHT22;43493;53.098;6.064;2023-04-06T05:33:02;2.70;99.90
57664;DHT22;43493;53.098;6.064;2023-04-06T05:35:27;2.70;99.90
57664;DHT22;43493;53.098;6.064;2023-04-06T05:37:53;2.70;99.90
57664;DHT22;43493;53.098;6.064;2023-04-06T05:40:19;2.80;99.90
57664;DHT22;43493;53.098;6.064;2023-04-06T05:42:44;2.80;99.90
57664;DHT22;43493;53.098;6.064;2023-04-06T05:45:11;2.80;99.90
57664;DHT22;43493;53.098;6.064;2023-04-06T05:47:42;2.80;99.90
57664;DHT22;43493;53.098;6.064;2023-04-06T05:50:14;2.90;99.90
57664;DHT22;43493;53.098;6.064;2023-04-06T05:52:40;2.90;99.90
57664;DHT22;43493;53.098;6.064;2023-04-06T05:55:09;2.90;99.90
57664;DHT22;43493;53.098;6.064;2023-04-06T05:57:35;3.00;99.90
57664;DHT22;43493;53.098;6.064;2023-04-06T06:00:01;3.00;99.90
57664;DHT22;43493;53.098;6.064;2023-04-06T06:02:30;3.00;99.90
57664;DHT22;43493;53.098;6.064;2023-04-06T06:04:56;3.10;99.90
57664;DHT22;43493;53.098;6.064;2023-04-06T06:07:23;3.20;99.90
57664;DHT22;43493;53.098;6.064;2023-04-06T06:09:49;3.30;99.90
57664;DHT22;43493;53.098;6.064;2023-04-06T06:12:15;3.40;99.90
57664;DHT22;43493;53.098;6.064;2023-04-06T06:14:41;3.60;99.90
57664;DHT22;43493;53.098;6.064;2023-04-06T06:17:06;4.30;99.90
57664;DHT22;43493;53.098;6.064;2023-04-06T06:19:32;5.30;99.90
57664;DHT22;43493;53.098;6.064;2023-04-06T06:21:58;6.00;99.90
57664;DHT22;43493;53.098;6.064;2023-04-06T06:24:25;6.10;98.70
57664;DHT22;43493;53.098;6.064;2023-04-06T06:26:51;5.80;97.60
57664;DHT22;43493;53.098;6.064;2023-04-06T06:29:16;5.40;97.50
57664;DHT22;43493;53.098;6.064;2023-04-06T06:31:42;5.20;98.20
57664;DHT22;43493;53.098;6.064;2023-04-06T06:34:08;5.00;98.30
57664;DHT22;43493;53.098;6.064;2023-04-06T06:36:33;5.40;99.30
57664;DHT22;43493;53.098;6.064;2023-04-06T06:39:00;6.30;99.30
57664;DHT22;43493;53.098;6.064;2023-04-06T06:41:28;7.40;97.50
57664;DHT22;43493;53.098;6.064;2023-04-06T06:43:54;8.00;95.30
57664;DHT22;43493;53.098;6.064;2023-04-06T06:46:20;8.20;94.00
57664;DHT22;43493;53.098;6.064;2023-04-06T06:48:46;8.10;91.00
57664;DHT22;43493;53.098;6.064;2023-04-06T06:51:12;7.90;91.80
57664;DHT22;43493;53.098;6.064;2023-04-06T06:53:38;7.70;91.00
57664;DHT22;43493;53.098;6.064;2023-04-06T06:56:04;8.00;89.60
57664;DHT22;43493;53.098;6.064;2023-04-06T06:58:30;8.70;89.40
57664;DHT22;43493;53.098;6.064;2023-04-06T07:00:59;9.10;86.60
57664;DHT22;43493;53.098;6.064;2023-04-06T07:03:25;9.30;81.60
57664;DHT22;43493;53.098;6.064;2023-04-06T07:05:51;9.70;80.30
57664;DHT22;43493;53.098;6.064;2023-04-06T07:08:21;10.10;79.30
57664;DHT22;43493;53.098;6.064;2023-04-06T07:10:47;10.80;77.60
57664;DHT22;43493;53.098;6.064;2023-04-06T07:13:14;11.40;73.60
57664;DHT22;43493;53.098;6.064;2023-04-06T07:15:47;12.10;71.30
57664;DHT22;43493;53.098;6.064;2023-04-06T07:18:13;12.70;65.80
57664;DHT22;43493;53.098;6.064;2023-04-06T07:20:38;13.30;63.40
57664;DHT22;43493;53.098;6.064;2023-04-06T07:23:04;13.70;61.70
57664;DHT22;43493;53.098;6.064;2023-04-06T07:25:30;14.30;60.80
57664;DHT22;43493;53.098;6.064;2023-04-06T07:27:56;14.30;58.10
57664;DHT22;43493;53.098;6.064;2023-04-06T07:30:22;14.30;56.50
57664;DHT22;43493;53.098;6.064;2023-04-06T07:32:48;14.40;55.50
57664;DHT22;43493;53.098;6.064;2023-04-06T07:35:14;14.10;52.00
57664;DHT22;43493;53.098;6.064;2023-04-06T07:37:40;14.20;55.10
57664;DHT22;43493;53.098;6.064;2023-04-06T07:40:08;14.60;53.70
57664;DHT22;43493;53.098;6.064;2023-04-06T07:42:34;14.50;53.50
57664;DHT22;43493;53.098;6.064;2023-04-06T07:44:59;14.10;52.40
57664;DHT22;43493;53.098;6.064;2023-04-06T07:47:25;13.60;51.00
57664;DHT22;43493;53.098;6.064;2023-04-06T07:49:51;13.10;51.90
57664;DHT22;43493;53.098;6.064;2023-04-06T07:52:17;12.60;51.90
57664;DHT22;43493;53.098;6.064;2023-04-06T07:54:43;12.00;52.70
57664;DHT22;43493;53.098;6.064;2023-04-06T07:57:09;11.60;53.30
57664;DHT22;43493;53.098;6.064;2023-04-06T07:59:35;11.40;54.10
57664;DHT22;43493;53.098;6.064;2023-04-06T08:02:01;11.20;54.30
57664;DHT22;43493;53.098;6.064;2023-04-06T08:04:26;10.90;54.50
57664;DHT22;43493;53.098;6.064;2023-04-06T08:06:52;10.60;54.50
57664;DHT22;43493;53.098;6.064;2023-04-06T08:09:18;10.50;55.40
57664;DHT22;43493;53.098;6.064;2023-04-06T08:11:43;10.40;55.40
57664;DHT22;43493;53.098;6.064;2023-04-06T08:14:11;10.30;55.90
57664;DHT22;43493;53.098;6.064;2023-04-06T08:16:37;10.30;57.10
57664;DHT22;43493;53.098;6.064;2023-04-06T08:19:03;10.30;56.80
57664;DHT22;43493;53.098;6.064;2023-04-06T08:21:29;10.20;57.10
57664;DHT22;43493;53.098;6.064;2023-04-06T08:23:55;10.20;57.40
57664;DHT22;43493;53.098;6.064;2023-04-06T08:26:21;10.20;57.70
57664;DHT22;43493;53.098;6.064;2023-04-06T08:28:47;10.20;57.80
57664;DHT22;43493;53.098;6.064;2023-04-06T08:31:13;10.20;57.90
57664;DHT22;43493;53.098;6.064;2023-04-06T08:33:38;10.20;57.70
57664;DHT22;43493;53.098;6.064;2023-04-06T08:36:12;10.20;58.00
57664;DHT22;43493;53.098;6.064;2023-04-06T08:38:39;10.40;58.30
57664;DHT22;43493;53.098;6.064;2023-04-06T08:41:09;10.50;58.30
57664;DHT22;43493;53.098;6.064;2023-04-06T08:43:43;10.60;57.90
57664;DHT22;43493;53.098;6.064;2023-04-06T08:46:10;10.70;57.70
57664;DHT22;43493;53.098;6.064;2023-04-06T08:48:38;10.80;57.60
57664;DHT22;43493;53.098;6.064;2023-04-06T08:51:05;10.70;56.60
57664;DHT22;43493;53.098;6.064;2023-04-06T08:53:31;10.70;57.30
57664;DHT22;43493;53.098;6.064;2023-04-06T08:55:58;10.60;57.50
57664;DHT22;43493;53.098;6.064;2023-04-06T08:58:25;10.60;57.80
57664;DHT22;43493;53.098;6.064;2023-04-06T09:00:53;10.70;57.00
57664;DHT22;43493;53.098;6.064;2023-04-06T09:03:20;10.70;57.40
57664;DHT22;43493;53.098;6.064;2023-04-06T09:05:47;10.70;57.60
57664;DHT22;43493;53.098;6.064;2023-04-06T09:08:13;10.80;57.20
57664;DHT22;43493;53.098;6.064;2023-04-06T09:10:42;10.70;56.80
57664;DHT22;43493;53.098;6.064;2023-04-06T09:13:08;10.80;57.40
57664;DHT22;43493;53.098;6.064;2023-04-06T09:15:35;10.90;56.90
57664;DHT22;43493;53.098;6.064;2023-04-06T09:18:01;11.00;57.30
57664;DHT22;43493;53.098;6.064;2023-04-06T09:20:27;11.00;58.00
57664;DHT22;43493;53.098;6.064;2023-04-06T09:22:54;11.10;57.90
57664;DHT22;43493;53.098;6.064;2023-04-06T09:25:22;11.10;57.60
57664;DHT22;43493;53.098;6.064;2023-04-06T09:28:01;11.20;58.20
57664;DHT22;43493;53.098;6.064;2023-04-06T09:30:27;11.40;58.20
57664;DHT22;43493;53.098;6.064;2023-04-06T09:32:55;11.50;58.10
57664;DHT22;43493;53.098;6.064;2023-04-06T09:35:22;11.60;57.20
57664;DHT22;43493;53.098;6.064;2023-04-06T09:37:50;11.50;56.50
57664;DHT22;43493;53.098;6.064;2023-04-06T09:40:16;11.50;57.60
57664;DHT22;43493;53.098;6.064;2023-04-06T09:42:48;11.50;57.90
57664;DHT22;43493;53.098;6.064;2023-04-06T09:45:15;11.50;57.40
57664;DHT22;43493;53.098;6.064;2023-04-06T09:47:43;11.50;58.00
57664;DHT22;43493;53.098;6.064;2023-04-06T09:50:11;11.50;57.50
57664;DHT22;43493;53.098;6.064;2023-04-06T09:52:47;11.60;58.40
57664;DHT22;43493;53.098;6.064;2023-04-06T09:55:31;11.60;57.80
57664;DHT22;43493;53.098;6.064;2023-04-06T09:58:06;11.70;58.10
57664;DHT22;43493;53.098;6.064;2023-04-06T10:00:40;11.80;58.10
57664;DHT22;43493;53.098;6.064;2023-04-06T10:03:45;11.80;58.00
57664;DHT22;43493;53.098;6.064;2023-04-06T10:06:16;11.90;57.40
57664;DHT22;43493;53.098;6.064;2023-04-06T10:08:45;12.00;58.00
57664;DHT22;43493;53.098;6.064;2023-04-06T10:11:13;12.00;55.80
57664;DHT22;43493;53.098;6.064;2023-04-06T10:13:39;12.00;57.50
57664;DHT22;43493;53.098;6.064;2023-04-06T10:16:06;12.00;57.10
57664;DHT22;43493;53.098;6.064;2023-04-06T10:18:33;12.10;57.70
57664;DHT22;43493;53.098;6.064;2023-04-06T10:21:08;12.20;57.60
57664;DHT22;43493;53.098;6.064;2023-04-06T10:23:44;12.20;57.40
57664;DHT22;43493;53.098;6.064;2023-04-06T10:26:17;12.20;57.00
57664;DHT22;43493;53.098;6.064;2023-04-06T10:28:47;12.30;56.80
57664;DHT22;43493;53.098;6.064;2023-04-06T10:31:13;12.40;57.70
57664;DHT22;43493;53.098;6.064;2023-04-06T10:33:39;12.50;57.80
57664;DHT22;43493;53.098;6.064;2023-04-06T10:36:21;12.50;57.50
57664;DHT22;43493;53.098;6.064;2023-04-06T10:38:47;12.60;56.70
57664;DHT22;43493;53.098;6.064;2023-04-06T10:41:12;12.50;56.70
57664;DHT22;43493;53.098;6.064;2023-04-06T10:43:42;12.50;56.90
57664;DHT22;43493;53.098;6.064;2023-04-06T10:46:09;12.60;56.20
57664;DHT22;43493;53.098;6.064;2023-04-06T10:48:40;12.50;56.10
57664;DHT22;43493;53.098;6.064;2023-04-06T10:51:16;12.60;56.30
57664;DHT22;43493;53.098;6.064;2023-04-06T10:53:45;12.50;55.80
57664;DHT22;43493;53.098;6.064;2023-04-06T10:56:17;12.50;55.80
57664;DHT22;43493;53.098;6.064;2023-04-06T10:58:52;12.40;54.80
57664;DHT22;43493;53.098;6.064;2023-04-06T11:01:20;12.40;55.40
57664;DHT22;43493;53.098;6.064;2023-04-06T11:03:51;12.50;56.10
57664;DHT22;43493;53.098;6.064;2023-04-06T11:06:22;12.50;56.30
57664;DHT22;43493;53.098;6.064;2023-04-06T11:08:49;12.50;56.00
57664;DHT22;43493;53.098;6.064;2023-04-06T11:11:20;12.60;56.20
57664;DHT22;43493;53.098;6.064;2023-04-06T11:14:00;12.70;56.20
57664;DHT22;43493;53.098;6.064;2023-04-06T11:16:32;12.80;56.30
57664;DHT22;43493;53.098;6.064;2023-04-06T11:19:07;12.80;56.20
57664;DHT22;43493;53.098;6.064;2023-04-06T11:21:37;12.90;56.20
57664;DHT22;43493;53.098;6.064;2023-04-06T11:26:54;12.90;55.70
57664;DHT22;43493;53.098;6.064;2023-04-06T11:29:22;12.90;56.10
57664;DHT22;43493;53.098;6.064;2023-04-06T11:31:51;13.00;56.30
57664;DHT22;43493;53.098;6.064;2023-04-06T11:34:22;13.00;56.20
57664;DHT22;43493;53.098;6.064;2023-04-06T11:36:49;13.10;55.60
57664;DHT22;43493;53.098;6.064;2023-04-06T11:39:23;13.10;55.70
57664;DHT22;43493;53.098;6.064;2023-04-06T11:41:59;13.20;55.40
57664;DHT22;43493;53.098;6.064;2023-04-06T11:47:00;13.20;55.00
57664;DHT22;43493;53.098;6.064;2023-04-06T11:49:30;13.20;55.40
57664;DHT22;43493;53.098;6.064;2023-04-06T11:51:56;13.20;56.10
57664;DHT22;43493;53.098;6.064;2023-04-06T11:54:36;13.10;56.10
57664;DHT22;43493;53.098;6.064;2023-04-06T11:57:03;13.10;55.80
57664;DHT22;43493;53.098;6.064;2023-04-06T11:59:30;13.20;56.50
57664;DHT22;43493;53.098;6.064;2023-04-06T12:01:57;13.30;56.80
57664;DHT22;43493;53.098;6.064;2023-04-06T12:04:23;13.30;56.90
57664;DHT22;43493;53.098;6.064;2023-04-06T12:06:49;13.40;57.00
57664;DHT22;43493;53.098;6.064;2023-04-06T12:09:16;13.40;57.10
57664;DHT22;43493;53.098;6.064;2023-04-06T12:11:43;13.50;57.20
57664;DHT22;43493;53.098;6.064;2023-04-06T12:14:08;13.60;57.50
57664;DHT22;43493;53.098;6.064;2023-04-06T12:16:35;13.60;57.40
57664;DHT22;43493;53.098;6.064;2023-04-06T12:19:00;13.60;56.70
57664;DHT22;43493;53.098;6.064;2023-04-06T12:21:30;13.60;56.70
57664;DHT22;43493;53.098;6.064;2023-04-06T12:23:59;13.60;57.10
57664;DHT22;43493;53.098;6.064;2023-04-06T12:26:25;13.70;57.60
57664;DHT22;43493;53.098;6.064;2023-04-06T12:28:52;13.70;57.40
57664;DHT22;43493;53.098;6.064;2023-04-06T12:31:19;13.70;57.30
57664;DHT22;43493;53.098;6.064;2023-04-06T12:33:50;13.80;57.70
57664;DHT22;43493;53.098;6.064;2023-04-06T12:36:16;13.60;57.70
57664;DHT22;43493;53.098;6.064;2023-04-06T12:38:50;13.70;57.90
57664;DHT22;43493;53.098;6.064;2023-04-06T12:41:17;13.60;58.00
57664;DHT22;43493;53.098;6.064;2023-04-06T12:43:44;13.60;58.10
57664;DHT22;43493;53.098;6.064;2023-04-06T12:46:10;13.50;58.20
57664;DHT22;43493;53.098;6.064;2023-04-06T12:48:36;13.50;58.20
57664;DHT22;43493;53.098;6.064;2023-04-06T12:51:04;13.50;58.70
57664;DHT22;43493;53.098;6.064;2023-04-06T12:53:30;13.40;58.80
57664;DHT22;43493;53.098;6.064;2023-04-06T12:55:57;13.50;59.10
57664;DHT22;43493;53.098;6.064;2023-04-06T12:58:24;13.40;59.10
57664;DHT22;43493;53.098;6.064;2023-04-06T13:00:52;13.30;59.00
57664;DHT22;43493;53.098;6.064;2023-04-06T13:03:19;13.30;59.40
57664;DHT22;43493;53.098;6.064;2023-04-06T13:05:46;13.30;60.20
57664;DHT22;43493;53.098;6.064;2023-04-06T13:08:12;13.20;60.10
57664;DHT22;43493;53.098;6.064;2023-04-06T13:10:49;13.20;60.60
57664;DHT22;43493;53.098;6.064;2023-04-06T13:13:16;13.10;62.30
57664;DHT22;43493;53.098;6.064;2023-04-06T13:15:42;13.10;62.20
57664;DHT22;43493;53.098;6.064;2023-04-06T13:18:09;13.00;62.90
57664;DHT22;43493;53.098;6.064;2023-04-06T13:20:35;13.00;64.00
57664;DHT22;43493;53.098;6.064;2023-04-06T13:23:01;13.00;66.60
57664;DHT22;43493;53.098;6.064;2023-04-06T13:25:27;13.10;70.30
57664;DHT22;43493;53.098;6.064;2023-04-06T13:27:54;13.10;73.30
57664;DHT22;43493;53.098;6.064;2023-04-06T13:30:20;13.00;75.40
57664;DHT22;43493;53.098;6.064;2023-04-06T13:32:45;13.00;77.20
57664;DHT22;43493;53.098;6.064;2023-04-06T13:35:11;13.00;80.70
57664;DHT22;43493;53.098;6.064;2023-04-06T13:37:38;12.90;82.30
57664;DHT22;43493;53.098;6.064;2023-04-06T13:40:05;12.80;84.00
57664;DHT22;43493;53.098;6.064;2023-04-06T13:42:32;12.80;86.10
57664;DHT22;43493;53.098;6.064;2023-04-06T13:44:58;12.80;88.30
57664;DHT22;43493;53.098;6.064;2023-04-06T13:47:24;12.70;90.40
57664;DHT22;43493;53.098;6.064;2023-04-06T13:49:50;12.70;92.80
57664;DHT22;43493;53.098;6.064;2023-04-06T13:52:19;12.60;93.70
57664;DHT22;43493;53.098;6.064;2023-04-06T13:54:45;12.50;95.90
57664;DHT22;43493;53.098;6.064;2023-04-06T13:57:11;12.40;97.10
57664;DHT22;43493;53.098;6.064;2023-04-06T13:59:38;12.20;98.20
57664;DHT22;43493;53.098;6.064;2023-04-06T14:02:06;12.10;99.80
57664;DHT22;43493;53.098;6.064;2023-04-06T14:04:32;12.00;99.40
57664;DHT22;43493;53.098;6.064;2023-04-06T14:06:59;11.80;99.90
57664;DHT22;43493;53.098;6.064;2023-04-06T14:09:25;11.70;99.90
57664;DHT22;43493;53.098;6.064;2023-04-06T14:11:51;11.50;99.90
57664;DHT22;43493;53.098;6.064;2023-04-06T14:14:17;11.50;99.90
57664;DHT22;43493;53.098;6.064;2023-04-06T14:16:43;11.40;99.90
57664;DHT22;43493;53.098;6.064;2023-04-06T14:19:16;11.30;99.90
57664;DHT22;43493;53.098;6.064;2023-04-06T14:21:46;11.20;99.90
57664;DHT22;43493;53.098;6.064;2023-04-06T14:24:14;11.10;99.90
57664;DHT22;43493;53.098;6.064;2023-04-06T14:26:40;11.00;99.90
57664;DHT22;43493;53.098;6.064;2023-04-06T14:29:07;11.00;99.90
57664;DHT22;43493;53.098;6.064;2023-04-06T14:31:33;11.00;99.90
57664;DHT22;43493;53.098;6.064;2023-04-06T14:34:01;11.00;99.90
57664;DHT22;43493;53.098;6.064;2023-04-06T14:36:28;10.90;99.90
57664;DHT22;43493;53.098;6.064;2023-04-06T14:38:57;10.90;99.90
57664;DHT22;43493;53.098;6.064;2023-04-06T14:41:24;10.80;99.90
57664;DHT22;43493;53.098;6.064;2023-04-06T14:43:50;10.70;99.90
57664;DHT22;43493;53.098;6.064;2023-04-06T14:46:18;10.70;99.90
57664;DHT22;43493;53.098;6.064;2023-04-06T14:48:44;10.70;99.90
57664;DHT22;43493;53.098;6.064;2023-04-06T14:51:11;10.70;99.90
57664;DHT22;43493;53.098;6.064;2023-04-06T14:53:37;10.70;99.90
57664;DHT22;43493;53.098;6.064;2023-04-06T14:56:03;10.60;99.90
57664;DHT22;43493;53.098;6.064;2023-04-06T14:58:29;10.50;99.90
57664;DHT22;43493;53.098;6.064;2023-04-06T15:00:59;10.50;99.90
57664;DHT22;43493;53.098;6.064;2023-04-06T15:03:26;10.40;99.90
57664;DHT22;43493;53.098;6.064;2023-04-06T15:05:52;10.40;99.90
57664;DHT22;43493;53.098;6.064;2023-04-06T15:08:18;10.40;99.90
57664;DHT22;43493;53.098;6.064;2023-04-06T15:10:50;10.40;99.90
57664;DHT22;43493;53.098;6.064;2023-04-06T15:13:17;10.30;99.90
57664;DHT22;43493;53.098;6.064;2023-04-06T15:15:43;10.20;99.90
57664;DHT22;43493;53.098;6.064;2023-04-06T15:18:10;10.20;99.90
57664;DHT22;43493;53.098;6.064;2023-04-06T15:20:36;10.10;99.90
57664;DHT22;43493;53.098;6.064;2023-04-06T15:23:03;10.10;99.90
57664;DHT22;43493;53.098;6.064;2023-04-06T15:25:29;10.00;99.90
57664;DHT22;43493;53.098;6.064;2023-04-06T15:27:56;10.00;99.90
57664;DHT22;43493;53.098;6.064;2023-04-06T15:30:22;9.90;99.90
57664;DHT22;43493;53.098;6.064;2023-04-06T15:32:53;9.80;99.90
57664;DHT22;43493;53.098;6.064;2023-04-06T15:35:20;9.70;99.90
57664;DHT22;43493;53.098;6.064;2023-04-06T15:37:46;9.70;99.90
57664;DHT22;43493;53.098;6.064;2023-04-06T15:40:12;9.60;99.90
57664;DHT22;43493;53.098;6.064;2023-04-06T15:42:39;9.60;99.90